sensor_id;sensor_type;location;lat;lon;timestamp;pressure;altitude;pressure_sealevel;temperature;humidity
32452;BME280;45528;52.102;5.242;2023-10-09T00:01:06;101596.0;;;21.38;61.14
32452;BME280;45528;52.102;5.242;2023-10-09T00:04:19;101602.0;;;21.42;60.99
32452;BME280;45528;52.102;5.242;2023-10-09T00:05:55;101609.0;;;21.36;61.26
32452;BME280;45528;52.102;5.242;2023-10-09T00:07:31;101611.0;;;21.4;61.06
32452;BME280;45528;52.102;5.242;2023-10-09T00:10:45;101602.0;;;21.43;60.97
32452;BME280;45528;52.102;5.242;2023-10-09T00:12:22;101596.0;;;21.4;60.72
32452;BME280;45528;52.102;5.242;2023-10-09T00:13:59;101596.0;;;21.3;60.95
32452;BME280;45528;52.102;5.242;2023-10-09T00:15:35;101588.0;;;21.29;61.0
32452;BME280;45528;52.102;5.242;2023-10-09T00:18:47;101588.0;;;21.25;61.1
32452;BME280;45528;52.102;5.242;2023-10-09T00:20:23;101590.0;;;21.28;61.08
32452;BME280;45528;52.102;5.242;2023-10-09T00:21:59;101596.0;;;21.25;61.2
32452;BME280;45528;52.102;5.242;2023-10-09T00:25:12;101602.0;;;21.24;61.17
32452;BME280;45528;52.102;5.242;2023-10-09T00:26:49;101600.0;;;21.25;61.19
32452;BME280;45528;52.102;5.242;2023-10-09T00:28:25;101599.0;;;21.26;60.98
32452;BME280;45528;52.102;5.242;2023-10-09T00:31:38;101601.0;;;21.28;60.77
32452;BME280;45528;52.102;5.242;2023-10-09T00:33:14;101602.0;;;21.31;60.72
32452;BME280;45528;52.102;5.242;2023-10-09T00:34:50;101605.0;;;21.28;60.83
32452;BME280;45528;52.102;5.242;2023-10-09T00:36:29;101611.0;;;21.28;60.8
32452;BME280;45528;52.102;5.242;2023-10-09T00:39:43;101607.0;;;21.32;60.98
32452;BME280;45528;52.102;5.242;2023-10-09T00:41:20;101610.0;;;21.35;61.07
32452;BME280;45528;52.102;5.242;2023-10-09T00:42:59;101609.0;;;21.34;61.34
32452;BME280;45528;52.102;5.242;2023-10-09T00:46:11;101602.0;;;21.45;61.35
32452;BME280;45528;52.102;5.242;2023-10-09T00:47:48;101597.0;;;21.47;61.36
32452;BME280;45528;52.102;5.242;2023-10-09T00:49:25;101598.0;;;21.57;61.34
32452;BME280;45528;52.102;5.242;2023-10-09T00:51:02;101596.0;;;21.59;61.38
32452;BME280;45528;52.102;5.242;2023-10-09T00:54:17;101593.0;;;21.71;61.35
32452;BME280;45528;52.102;5.242;2023-10-09T00:55:53;101591.0;;;21.84;61.25
32452;BME280;45528;52.102;5.242;2023-10-09T00:57:30;101589.0;;;21.88;61.23
32452;BME280;45528;52.102;5.242;2023-10-09T01:00:44;101586.0;;;21.92;61.54
32452;BME280;45528;52.102;5.242;2023-10-09T01:02:20;101584.0;;;22.07;61.47
32452;BME280;45528;52.102;5.242;2023-10-09T01:03:56;101583.0;;;22.15;61.45
32452;BME280;45528;52.102;5.242;2023-10-09T01:07:09;101576.0;;;22.23;61.29
32452;BME280;45528;52.102;5.242;2023-10-09T01:08:45;101569.0;;;22.32;61.17
32452;BME280;45528;52.102;5.242;2023-10-09T01:10:21;101573.0;;;22.41;61.05
32452;BME280;45528;52.102;5.242;2023-10-09T01:11:57;101573.0;;;22.46;61.22
32452;BME280;45528;52.102;5.242;2023-10-09T01:15:11;101583.0;;;22.55;60.84
32452;BME280;45528;52.102;5.242;2023-10-09T01:16:47;101578.0;;;22.62;60.61
32452;BME280;45528;52.102;5.242;2023-10-09T01:18:23;101577.0;;;22.81;60.45
32452;BME280;45528;52.102;5.242;2023-10-09T01:21:37;101570.0;;;22.8;60.46
32452;BME280;45528;52.102;5.242;2023-10-09T01:23:13;101571.0;;;22.91;60.13
32452;BME280;45528;52.102;5.242;2023-10-09T01:24:49;101566.0;;;22.98;60.12
32452;BME280;45528;52.102;5.242;2023-10-09T01:28:03;101564.0;;;22.94;60.0
32452;BME280;45528;52.102;5.242;2023-10-09T01:29:40;101557.0;;;22.98;59.94
32452;BME280;45528;52.102;5.242;2023-10-09T01:31:17;101558.0;;;23.07;59.98
32452;BME280;45528;52.102;5.242;2023-10-09T01:32:53;101562.0;;;23.2;59.36
32452;BME280;45528;52.102;5.242;2023-10-09T01:36:07;101561.0;;;23.26;59.32
32452;BME280;45528;52.102;5.242;2023-10-09T01:37:43;101561.0;;;23.31;59.13
32452;BME280;45528;52.102;5.242;2023-10-09T01:39:21;101553.0;;;23.36;58.96
32452;BME280;45528;52.102;5.242;2023-10-09T01:42:34;101548.0;;;23.32;59.24
32452;BME280;45528;52.102;5.242;2023-10-09T01:44:11;101546.0;;;23.32;59.23
32452;BME280;45528;52.102;5.242;2023-10-09T01:45:47;101550.0;;;23.39;58.93
32452;BME280;45528;52.102;5.242;2023-10-09T01:49:00;101548.0;;;23.4;58.88
32452;BME280;45528;52.102;5.242;2023-10-09T01:50:37;101544.0;;;23.42;59.25
32452;BME280;45528;52.102;5.242;2023-10-09T01:52:13;101553.0;;;23.42;58.89
32452;BME280;45528;52.102;5.242;2023-10-09T01:53:49;101548.0;;;23.45;58.97
32452;BME280;45528;52.102;5.242;2023-10-09T01:57:02;101540.0;;;23.39;59.14
32452;BME280;45528;52.102;5.242;2023-10-09T01:58:40;101536.0;;;23.38;59.03
32452;BME280;45528;52.102;5.242;2023-10-09T02:00:18;101528.0;;;23.31;59.51
32452;BME280;45528;52.102;5.242;2023-10-09T02:03:31;101527.0;;;23.33;58.88
32452;BME280;45528;52.102;5.242;2023-10-09T02:05:08;101534.0;;;23.32;59.38
32452;BME280;45528;52.102;5.242;2023-10-09T02:06:45;101541.0;;;23.35;59.24
32452;BME280;45528;52.102;5.242;2023-10-09T02:09:58;101533.0;;;23.34;59.29
32452;BME280;45528;52.102;5.242;2023-10-09T02:11:35;101533.0;;;23.33;59.34
32452;BME280;45528;52.102;5.242;2023-10-09T02:13:13;101532.0;;;23.34;59.54
32452;BME280;45528;52.102;5.242;2023-10-09T02:14:50;101530.0;;;23.42;59.27
32452;BME280;45528;52.102;5.242;2023-10-09T02:18:03;101528.0;;;23.32;59.22
32452;BME280;45528;52.102;5.242;2023-10-09T02:19:40;101522.0;;;23.24;59.53
32452;BME280;45528;52.102;5.242;2023-10-09T02:21:16;101521.0;;;23.28;59.35
32452;BME280;45528;52.102;5.242;2023-10-09T02:24:29;101511.0;;;23.22;59.52
32452;BME280;45528;52.102;5.242;2023-10-09T02:26:05;101512.0;;;23.32;59.47
32452;BME280;45528;52.102;5.242;2023-10-09T02:27:41;101512.0;;;23.25;59.35
32452;BME280;45528;52.102;5.242;2023-10-09T02:30:53;101506.0;;;23.32;59.27
32452;BME280;45528;52.102;5.242;2023-10-09T02:32:29;101505.0;;;23.35;59.43
32452;BME280;45528;52.102;5.242;2023-10-09T02:34:05;101503.0;;;23.28;59.37
32452;BME280;45528;52.102;5.242;2023-10-09T02:35:42;101506.0;;;23.32;59.36
32452;BME280;45528;52.102;5.242;2023-10-09T02:38:56;101509.0;;;23.27;59.63
32452;BME280;45528;52.102;5.242;2023-10-09T02:40:32;101512.0;;;23.28;59.56
32452;BME280;45528;52.102;5.242;2023-10-09T02:42:08;101506.0;;;23.22;59.86
32452;BME280;45528;52.102;5.242;2023-10-09T02:45:20;101498.0;;;23.17;59.88
32452;BME280;45528;52.102;5.242;2023-10-09T02:46:56;101501.0;;;23.17;59.82
32452;BME280;45528;52.102;5.242;2023-10-09T02:48:32;101503.0;;;23.16;59.78
32452;BME280;45528;52.102;5.242;2023-10-09T02:51:44;101505.0;;;23.1;60.09
32452;BME280;45528;52.102;5.242;2023-10-09T02:53:20;101507.0;;;23.08;60.08
32452;BME280;45528;52.102;5.242;2023-10-09T02:54:57;101506.0;;;23.08;60.04
32452;BME280;45528;52.102;5.242;2023-10-09T02:56:34;101497.0;;;23.05;60.09
32452;BME280;45528;52.102;5.242;2023-10-09T02:59:47;101487.0;;;22.97;60.25
32452;BME280;45528;52.102;5.242;2023-10-09T03:01:24;101485.0;;;23.04;60.0
32452;BME280;45528;52.102;5.242;2023-10-09T03:03:00;101482.0;;;22.99;60.26
32452;BME280;45528;52.102;5.242;2023-10-09T03:06:13;101478.0;;;23.02;60.27
32452;BME280;45528;52.102;5.242;2023-10-09T03:07:49;101481.0;;;23.08;60.03
32452;BME280;45528;52.102;5.242;2023-10-09T03:09:26;101485.0;;;23.15;59.95
32452;BME280;45528;52.102;5.242;2023-10-09T03:12:39;101485.0;;;23.16;59.56
32452;BME280;45528;52.102;5.242;2023-10-09T03:14:15;101467.0;;;23.16;59.67
32452;BME280;45528;52.102;5.242;2023-10-09T03:15:51;101459.0;;;23.1;59.87
32452;BME280;45528;52.102;5.242;2023-10-09T03:17:27;101469.0;;;23.08;59.87
32452;BME280;45528;52.102;5.242;2023-10-09T03:20:39;101476.0;;;23.07;59.88
32452;BME280;45528;52.102;5.242;2023-10-09T03:22:15;101480.0;;;23.12;59.96
32452;BME280;45528;52.102;5.242;2023-10-09T03:23:51;101473.0;;;23.11;59.96
32452;BME280;45528;52.102;5.242;2023-10-09T03:27:04;101471.0;;;23.19;59.67
32452;BME280;45528;52.102;5.242;2023-10-09T03:28:41;101467.0;;;23.16;59.72
32452;BME280;45528;52.102;5.242;2023-10-09T03:30:17;101459.0;;;23.12;59.43
32452;BME280;45528;52.102;5.242;2023-10-09T03:33:29;101459.0;;;23.22;59.53
32452;BME280;45528;52.102;5.242;2023-10-09T03:35:06;101455.0;;;23.16;59.79
32452;BME280;45528;52.102;5.242;2023-10-09T03:36:42;101448.0;;;23.21;59.73
32452;BME280;45528;52.102;5.242;2023-10-09T03:39:54;101458.0;;;23.21;59.78
32452;BME280;45528;52.102;5.242;2023-10-09T03:41:29;101463.0;;;23.29;59.63
32452;BME280;45528;52.102;5.242;2023-10-09T03:43:05;101464.0;;;23.31;59.69
32452;BME280;45528;52.102;5.242;2023-10-09T03:44:42;101475.0;;;23.34;59.64
32452;BME280;45528;52.102;5.242;2023-10-09T03:47:55;101501.0;;;23.43;59.53
32452;BME280;45528;52.102;5.242;2023-10-09T03:49:32;101515.0;;;23.54;59.24
32452;BME280;45528;52.102;5.242;2023-10-09T03:51:08;101517.0;;;23.53;59.26
32452;BME280;45528;52.102;5.242;2023-10-09T03:54:21;101525.0;;;23.53;59.37
32452;BME280;45528;52.102;5.242;2023-10-09T03:55:57;101516.0;;;23.56;59.32
32452;BME280;45528;52.102;5.242;2023-10-09T03:57:33;101519.0;;;23.59;59.41
32452;BME280;45528;52.102;5.242;2023-10-09T04:02:22;101509.0;;;23.65;59.43
32452;BME280;45528;52.102;5.242;2023-10-09T04:03:59;101507.0;;;23.64;59.58
32452;BME280;45528;52.102;5.242;2023-10-09T04:05:37;101507.0;;;23.76;59.32
32452;BME280;45528;52.102;5.242;2023-10-09T04:08:49;101511.0;;;23.75;59.34
32452;BME280;45528;52.102;5.242;2023-10-09T04:10:25;101513.0;;;23.75;59.16
32452;BME280;45528;52.102;5.242;2023-10-09T04:12:01;101503.0;;;23.74;59.24
32452;BME280;45528;52.102;5.242;2023-10-09T04:15:13;101505.0;;;23.71;59.22
32452;BME280;45528;52.102;5.242;2023-10-09T04:16:50;101508.0;;;23.79;59.22
32452;BME280;45528;52.102;5.242;2023-10-09T04:18:26;101515.0;;;23.8;59.13
32452;BME280;45528;52.102;5.242;2023-10-09T04:21:40;101513.0;;;23.81;59.13
32452;BME280;45528;52.102;5.242;2023-10-09T04:23:16;101510.0;;;23.89;59.03
32452;BME280;45528;52.102;5.242;2023-10-09T04:24:52;101510.0;;;23.92;59.0
32452;BME280;45528;52.102;5.242;2023-10-09T04:26:28;101509.0;;;24.01;58.82
32452;BME280;45528;52.102;5.242;2023-10-09T04:29:40;101501.0;;;23.92;59.1
32452;BME280;45528;52.102;5.242;2023-10-09T04:31:17;101497.0;;;23.9;59.22
32452;BME280;45528;52.102;5.242;2023-10-09T04:32:53;101484.0;;;23.94;59.02
32452;BME280;45528;52.102;5.242;2023-10-09T04:36:06;101477.0;;;23.96;59.02
32452;BME280;45528;52.102;5.242;2023-10-09T04:37:43;101489.0;;;24.02;58.93
32452;BME280;45528;52.102;5.242;2023-10-09T04:39:19;101488.0;;;24.02;58.84
32452;BME280;45528;52.102;5.242;2023-10-09T04:42:31;101485.0;;;24.01;59.11
32452;BME280;45528;52.102;5.242;2023-10-09T04:44:07;101485.0;;;24.02;59.13
32452;BME280;45528;52.102;5.242;2023-10-09T04:45:42;101486.0;;;24.04;59.08
32452;BME280;45528;52.102;5.242;2023-10-09T04:48:54;101490.0;;;24.0;59.13
32452;BME280;45528;52.102;5.242;2023-10-09T04:50:30;101483.0;;;24.0;59.29
32452;BME280;45528;52.102;5.242;2023-10-09T04:52:06;101480.0;;;24.02;59.4
32452;BME280;45528;52.102;5.242;2023-10-09T04:53:42;101484.0;;;24.02;59.22
32452;BME280;45528;52.102;5.242;2023-10-09T04:56:54;101496.0;;;24.07;58.82
32452;BME280;45528;52.102;5.242;2023-10-09T04:58:30;101499.0;;;24.06;59.05
32452;BME280;45528;52.102;5.242;2023-10-09T05:00:07;101501.0;;;24.12;59.02
32452;BME280;45528;52.102;5.242;2023-10-09T05:03:21;101502.0;;;24.01;59.04
32452;BME280;45528;52.102;5.242;2023-10-09T05:04:57;101497.0;;;23.97;59.43
32452;BME280;45528;52.102;5.242;2023-10-09T05:06:33;101492.0;;;23.99;59.46
32452;BME280;45528;52.102;5.242;2023-10-09T05:09:47;101492.0;;;24.02;59.43
32452;BME280;45528;52.102;5.242;2023-10-09T05:11:23;101507.0;;;24.06;59.45
32452;BME280;45528;52.102;5.242;2023-10-09T05:12:59;101497.0;;;24.09;59.35
32452;BME280;45528;52.102;5.242;2023-10-09T05:14:35;101491.0;;;24.13;59.12
32452;BME280;45528;52.102;5.242;2023-10-09T05:17:51;101498.0;;;24.21;59.02
32452;BME280;45528;52.102;5.242;2023-10-09T05:19:27;101503.0;;;24.23;58.98
32452;BME280;45528;52.102;5.242;2023-10-09T05:21:03;101518.0;;;24.33;58.85
32452;BME280;45528;52.102;5.242;2023-10-09T05:24:15;101518.0;;;24.39;58.62
32452;BME280;45528;52.102;5.242;2023-10-09T05:25:51;101522.0;;;24.41;58.5
32452;BME280;45528;52.102;5.242;2023-10-09T05:27:27;101532.0;;;24.36;58.57
32452;BME280;45528;52.102;5.242;2023-10-09T05:30:39;101536.0;;;24.38;58.87
32452;BME280;45528;52.102;5.242;2023-10-09T05:32:15;101528.0;;;24.4;58.71
32452;BME280;45528;52.102;5.242;2023-10-09T05:33:52;101519.0;;;24.43;58.61
32452;BME280;45528;52.102;5.242;2023-10-09T05:37:04;101532.0;;;24.48;58.51
32452;BME280;45528;52.102;5.242;2023-10-09T05:38:41;101531.0;;;24.5;58.42
32452;BME280;45528;52.102;5.242;2023-10-09T05:40:17;101531.0;;;24.44;58.25
32452;BME280;45528;52.102;5.242;2023-10-09T05:41:53;101533.0;;;24.41;58.6
32452;BME280;45528;52.102;5.242;2023-10-09T05:45:07;101535.0;;;24.37;58.68
32452;BME280;45528;52.102;5.242;2023-10-09T05:46:43;101540.0;;;24.48;58.36
32452;BME280;45528;52.102;5.242;2023-10-09T05:48:19;101549.0;;;24.44;58.4
32452;BME280;45528;52.102;5.242;2023-10-09T05:51:32;101555.0;;;24.46;58.46
32452;BME280;45528;52.102;5.242;2023-10-09T05:53:08;101557.0;;;24.53;58.36
32452;BME280;45528;52.102;5.242;2023-10-09T05:54:44;101553.0;;;24.56;58.19
32452;BME280;45528;52.102;5.242;2023-10-09T05:57:56;101545.0;;;24.6;58.06
32452;BME280;45528;52.102;5.242;2023-10-09T05:59:32;101548.0;;;24.62;58.19
32452;BME280;45528;52.102;5.242;2023-10-09T06:01:08;101533.0;;;24.61;58.07
32452;BME280;45528;52.102;5.242;2023-10-09T06:02:44;101512.0;;;24.58;58.22
32452;BME280;45528;52.102;5.242;2023-10-09T06:05:57;101511.0;;;24.59;58.23
32452;BME280;45528;52.102;5.242;2023-10-09T06:07:33;101502.0;;;24.54;58.25
32452;BME280;45528;52.102;5.242;2023-10-09T06:09:09;101503.0;;;24.56;58.11
32452;BME280;45528;52.102;5.242;2023-10-09T06:12:22;101489.0;;;24.56;58.33
32452;BME280;45528;52.102;5.242;2023-10-09T06:14:00;101476.0;;;24.55;58.28
32452;BME280;45528;52.102;5.242;2023-10-09T06:15:37;101491.0;;;24.6;58.3
32452;BME280;45528;52.102;5.242;2023-10-09T06:18:50;101505.0;;;24.55;58.34
32452;BME280;45528;52.102;5.242;2023-10-09T06:20:26;101516.0;;;24.58;58.12
32452;BME280;45528;52.102;5.242;2023-10-09T06:22:02;101505.0;;;24.56;58.31
32452;BME280;45528;52.102;5.242;2023-10-09T06:23:38;101494.0;;;24.69;58.08
32452;BME280;45528;52.102;5.242;2023-10-09T06:26:50;101491.0;;;24.76;57.82
32452;BME280;45528;52.102;5.242;2023-10-09T06:28:26;101489.0;;;24.77;57.78
32452;BME280;45528;52.102;5.242;2023-10-09T06:30:03;101502.0;;;24.81;57.68
32452;BME280;45528;52.102;5.242;2023-10-09T06:33:15;101512.0;;;24.89;57.3
32452;BME280;45528;52.102;5.242;2023-10-09T06:34:52;101508.0;;;24.83;57.6
32452;BME280;45528;52.102;5.242;2023-10-09T06:36:29;101505.0;;;24.76;57.79
32452;BME280;45528;52.102;5.242;2023-10-09T06:39:41;101506.0;;;24.73;57.75
32452;BME280;45528;52.102;5.242;2023-10-09T06:41:17;101524.0;;;24.76;57.7
32452;BME280;45528;52.102;5.242;2023-10-09T06:42:53;101538.0;;;24.92;57.44
32452;BME280;45528;52.102;5.242;2023-10-09T06:46:05;101548.0;;;24.86;57.54
32452;BME280;45528;52.102;5.242;2023-10-09T06:47:42;101551.0;;;24.83;57.6
32452;BME280;45528;52.102;5.242;2023-10-09T06:49:22;101546.0;;;24.81;57.83
32452;BME280;45528;52.102;5.242;2023-10-09T06:51:02;101557.0;;;24.81;57.84
32452;BME280;45528;52.102;5.242;2023-10-09T06:54:15;101559.0;;;24.82;57.91
32452;BME280;45528;52.102;5.242;2023-10-09T06:55:51;101562.0;;;24.83;57.7
32452;BME280;45528;52.102;5.242;2023-10-09T06:57:27;101558.0;;;24.88;57.78
32452;BME280;45528;52.102;5.242;2023-10-09T07:00:40;101555.0;;;24.88;57.93
32452;BME280;45528;52.102;5.242;2023-10-09T07:02:17;101555.0;;;24.9;57.84
32452;BME280;45528;52.102;5.242;2023-10-09T07:03:54;101549.0;;;24.95;57.71
32452;BME280;45528;52.102;5.242;2023-10-09T07:05:30;101548.0;;;24.97;57.76
32452;BME280;45528;52.102;5.242;2023-10-09T07:08:43;101549.0;;;24.99;57.76
32452;BME280;45528;52.102;5.242;2023-10-09T07:10:19;101537.0;;;25.02;57.66
32452;BME280;45528;52.102;5.242;2023-10-09T07:11:55;101553.0;;;25.06;57.59
32452;BME280;45528;52.102;5.242;2023-10-09T07:15:08;101569.0;;;25.1;57.39
32452;BME280;45528;52.102;5.242;2023-10-09T07:16:44;101565.0;;;25.12;57.43
32452;BME280;45528;52.102;5.242;2023-10-09T07:18:20;101572.0;;;25.06;57.49
32452;BME280;45528;52.102;5.242;2023-10-09T07:21:33;101548.0;;;25.06;57.67
32452;BME280;45528;52.102;5.242;2023-10-09T07:23:09;101542.0;;;25.03;57.84
32452;BME280;45528;52.102;5.242;2023-10-09T07:24:45;101535.0;;;25.07;57.49
32452;BME280;45528;52.102;5.242;2023-10-09T07:27:57;101524.0;;;25.08;57.67
32452;BME280;45528;52.102;5.242;2023-10-09T07:29:33;101505.0;;;25.11;57.71
32452;BME280;45528;52.102;5.242;2023-10-09T07:31:17;101485.0;;;25.12;57.59
32452;BME280;45528;52.102;5.242;2023-10-09T07:32:53;101483.0;;;25.21;57.37
32452;BME280;45528;52.102;5.242;2023-10-09T07:36:06;101462.0;;;25.2;57.47
32452;BME280;45528;52.102;5.242;2023-10-09T07:37:42;101445.0;;;25.21;57.48
32452;BME280;45528;52.102;5.242;2023-10-09T07:39:18;101449.0;;;25.36;57.11
32452;BME280;45528;52.102;5.242;2023-10-09T07:42:31;101441.0;;;25.46;56.82
32452;BME280;45528;52.102;5.242;2023-10-09T07:44:07;101449.0;;;25.52;56.71
32452;BME280;45528;52.102;5.242;2023-10-09T07:45:43;101463.0;;;25.5;56.68
32452;BME280;45528;52.102;5.242;2023-10-09T07:47:19;101506.0;;;25.73;56.3
32452;BME280;45528;52.102;5.242;2023-10-09T07:50:36;101540.0;;;25.78;56.3
32452;BME280;45528;52.102;5.242;2023-10-09T07:52:13;101549.0;;;25.77;56.6
32452;BME280;45528;52.102;5.242;2023-10-09T07:53:50;101566.0;;;25.78;56.5
32452;BME280;45528;52.102;5.242;2023-10-09T07:57:03;101559.0;;;25.74;56.7
32452;BME280;45528;52.102;5.242;2023-10-09T07:58:39;101545.0;;;25.81;56.5
32452;BME280;45528;52.102;5.242;2023-10-09T08:00:15;101555.0;;;25.74;56.92
32452;BME280;45528;52.102;5.242;2023-10-09T08:03:27;101539.0;;;25.89;56.57
32452;BME280;45528;52.102;5.242;2023-10-09T08:05:04;101537.0;;;25.83;56.49
32452;BME280;45528;52.102;5.242;2023-10-09T08:06:41;101542.0;;;25.84;56.55
32452;BME280;45528;52.102;5.242;2023-10-09T08:08:18;101541.0;;;25.88;56.68
32452;BME280;45528;52.102;5.242;2023-10-09T08:11:30;101552.0;;;25.84;56.62
32452;BME280;45528;52.102;5.242;2023-10-09T08:13:07;101553.0;;;25.93;56.52
32452;BME280;45528;52.102;5.242;2023-10-09T08:14:43;101563.0;;;25.75;56.51
32452;BME280;45528;52.102;5.242;2023-10-09T08:17:56;101570.0;;;25.92;56.38
32452;BME280;45528;52.102;5.242;2023-10-09T08:19:33;101567.0;;;25.9;56.47
32452;BME280;45528;52.102;5.242;2023-10-09T08:21:09;101569.0;;;25.93;56.58
32452;BME280;45528;52.102;5.242;2023-10-09T08:24:21;101571.0;;;25.97;56.33
32452;BME280;45528;52.102;5.242;2023-10-09T08:25:59;101574.0;;;26.0;56.46
32452;BME280;45528;52.102;5.242;2023-10-09T08:27:35;101567.0;;;26.0;56.5
32452;BME280;45528;52.102;5.242;2023-10-09T08:29:11;101572.0;;;26.04;56.29
32452;BME280;45528;52.102;5.242;2023-10-09T08:32:23;101577.0;;;26.15;55.89
32452;BME280;45528;52.102;5.242;2023-10-09T08:34:00;101586.0;;;26.3;55.81
32452;BME280;45528;52.102;5.242;2023-10-09T08:35:36;101597.0;;;26.37;55.49
32452;BME280;45528;52.102;5.242;2023-10-09T08:38:50;101598.0;;;26.43;55.12
32452;BME280;45528;52.102;5.242;2023-10-09T08:40:30;101607.0;;;26.43;55.31
32452;BME280;45528;52.102;5.242;2023-10-09T08:42:07;101600.0;;;26.41;55.42
32452;BME280;45528;52.102;5.242;2023-10-09T08:45:25;101601.0;;;26.49;55.26
32452;BME280;45528;52.102;5.242;2023-10-09T08:47:02;101602.0;;;26.42;55.27
32452;BME280;45528;52.102;5.242;2023-10-09T08:48:37;101601.0;;;26.53;54.95
32452;BME280;45528;52.102;5.242;2023-10-09T08:50:14;101603.0;;;26.74;54.84
32452;BME280;45528;52.102;5.242;2023-10-09T08:53:26;101614.0;;;26.88;54.53
32452;BME280;45528;52.102;5.242;2023-10-09T08:55:02;101613.0;;;26.94;54.32
32452;BME280;45528;52.102;5.242;2023-10-09T08:56:38;101608.0;;;27.0;54.37
32452;BME280;45528;52.102;5.242;2023-10-09T08:59:51;101612.0;;;26.97;54.45
32452;BME280;45528;52.102;5.242;2023-10-09T09:01:27;101618.0;;;26.97;54.15
32452;BME280;45528;52.102;5.242;2023-10-09T09:03:04;101621.0;;;27.13;53.74
32452;BME280;45528;52.102;5.242;2023-10-09T09:06:17;101625.0;;;27.23;53.85
32452;BME280;45528;52.102;5.242;2023-10-09T09:07:55;101627.0;;;27.27;53.64
32452;BME280;45528;52.102;5.242;2023-10-09T09:09:31;101625.0;;;26.93;54.13
32452;BME280;45528;52.102;5.242;2023-10-09T09:11:08;101611.0;;;27.16;53.85
32452;BME280;45528;52.102;5.242;2023-10-09T09:14:35;101616.0;;;27.25;53.67
32452;BME280;45528;52.102;5.242;2023-10-09T09:16:14;101616.0;;;27.3;53.45
32452;BME280;45528;52.102;5.242;2023-10-09T09:18:03;101625.0;;;27.35;53.36
32452;BME280;45528;52.102;5.242;2023-10-09T09:19:39;101622.0;;;27.3;53.38
32452;BME280;45528;52.102;5.242;2023-10-09T09:22:55;101631.0;;;27.31;53.28
32452;BME280;45528;52.102;5.242;2023-10-09T09:24:31;101635.0;;;27.4;53.37
32452;BME280;45528;52.102;5.242;2023-10-09T09:26:07;101637.0;;;27.4;52.77
32452;BME280;45528;52.102;5.242;2023-10-09T09:29:20;101637.0;;;27.47;53.2
32452;BME280;45528;52.102;5.242;2023-10-09T09:31:06;101641.0;;;27.46;53.37
32452;BME280;45528;52.102;5.242;2023-10-09T09:32:42;101641.0;;;27.57;52.85
32452;BME280;45528;52.102;5.242;2023-10-09T09:34:19;101639.0;;;27.64;52.8
32452;BME280;45528;52.102;5.242;2023-10-09T09:37:34;101631.0;;;27.54;53.09
32452;BME280;45528;52.102;5.242;2023-10-09T09:39:10;101633.0;;;27.58;52.87
32452;BME280;45528;52.102;5.242;2023-10-09T09:40:46;101633.0;;;27.55;52.53
32452;BME280;45528;52.102;5.242;2023-10-09T09:42:23;101634.0;;;27.42;52.66
32452;BME280;45528;52.102;5.242;2023-10-09T09:45:38;101632.0;;;27.63;52.44
32452;BME280;45528;52.102;5.242;2023-10-09T09:47:14;101633.0;;;27.6;52.5
32452;BME280;45528;52.102;5.242;2023-10-09T09:48:51;101637.0;;;27.74;52.56
32452;BME280;45528;52.102;5.242;2023-10-09T09:52:04;101637.0;;;27.61;52.84
32452;BME280;45528;52.102;5.242;2023-10-09T09:53:40;101633.0;;;27.54;53.02
32452;BME280;45528;52.102;5.242;2023-10-09T09:55:16;101630.0;;;27.44;53.12
32452;BME280;45528;52.102;5.242;2023-10-09T09:58:30;101634.0;;;27.39;52.99
32452;BME280;45528;52.102;5.242;2023-10-09T10:00:09;101633.0;;;27.42;53.2
32452;BME280;45528;52.102;5.242;2023-10-09T10:01:48;101631.0;;;27.54;53.17
32452;BME280;45528;52.102;5.242;2023-10-09T10:03:31;101632.0;;;27.6;53.06
32452;BME280;45528;52.102;5.242;2023-10-09T10:06:54;101632.0;;;27.53;53.09
32452;BME280;45528;52.102;5.242;2023-10-09T10:08:32;101630.0;;;27.69;52.69
32452;BME280;45528;52.102;5.242;2023-10-09T10:10:34;101633.0;;;27.75;52.93
32452;BME280;45528;52.102;5.242;2023-10-09T10:12:11;101637.0;;;27.96;52.32
32452;BME280;45528;52.102;5.242;2023-10-09T10:13:55;101633.0;;;27.75;52.17
32452;BME280;45528;52.102;5.242;2023-10-09T10:18:14;101636.0;;;27.79;51.34
32452;BME280;45528;52.102;5.242;2023-10-09T10:20:05;101630.0;;;27.81;51.54
32452;BME280;45528;52.102;5.242;2023-10-09T10:21:40;101631.0;;;27.85;51.73
32452;BME280;45528;52.102;5.242;2023-10-09T10:23:18;101637.0;;;27.77;52.53
32452;BME280;45528;52.102;5.242;2023-10-09T10:24:55;101637.0;;;27.82;52.31
32452;BME280;45528;52.102;5.242;2023-10-09T10:26:31;101639.0;;;27.85;52.26
32452;BME280;45528;52.102;5.242;2023-10-09T10:30:27;101649.0;;;27.97;52.1
32452;BME280;45528;52.102;5.242;2023-10-09T10:32:06;101657.0;;;28.11;51.11
32452;BME280;45528;52.102;5.242;2023-10-09T10:34:16;101657.0;;;28.02;51.36
32452;BME280;45528;52.102;5.242;2023-10-09T10:35:54;101659.0;;;28.06;51.18
32452;BME280;45528;52.102;5.242;2023-10-09T10:37:35;101655.0;;;28.02;51.45
32452;BME280;45528;52.102;5.242;2023-10-09T10:39:12;101658.0;;;28.22;50.94
32452;BME280;45528;52.102;5.242;2023-10-09T10:42:25;101655.0;;;28.11;51.27
32452;BME280;45528;52.102;5.242;2023-10-09T10:44:01;101657.0;;;28.06;51.04
32452;BME280;45528;52.102;5.242;2023-10-09T10:45:38;101657.0;;;28.1;51.07
32452;BME280;45528;52.102;5.242;2023-10-09T10:47:26;101659.0;;;28.18;50.96
32452;BME280;45528;52.102;5.242;2023-10-09T10:50:41;101653.0;;;28.26;50.79
32452;BME280;45528;52.102;5.242;2023-10-09T10:52:20;101656.0;;;28.21;50.79
32452;BME280;45528;52.102;5.242;2023-10-09T10:53:56;101659.0;;;28.23;50.65
32452;BME280;45528;52.102;5.242;2023-10-09T10:57:15;101656.0;;;28.08;50.2
32452;BME280;45528;52.102;5.242;2023-10-09T10:58:53;101655.0;;;28.13;50.34
32452;BME280;45528;52.102;5.242;2023-10-09T11:00:30;101657.0;;;28.24;50.34
32452;BME280;45528;52.102;5.242;2023-10-09T11:02:10;101656.0;;;28.43;50.07
32452;BME280;45528;52.102;5.242;2023-10-09T11:05:25;101662.0;;;28.45;49.82
32452;BME280;45528;52.102;5.242;2023-10-09T11:07:02;101657.0;;;28.47;50.23
32452;BME280;45528;52.102;5.242;2023-10-09T11:08:43;101658.0;;;28.59;49.89